Flight Track Log - Related Links

Times and Time Zones

All times are in EDT time to prevent confusion due to time zone crossing. See the EZY8719 flight status page for this flight to view local times or setup timezone preferences in your user account.

Time Position Orientation Groundspeed Altitude Reporting Facility
EDT Latitude Longitude Course Direction KTS MPH feet Rate Location/Type
Wed 12:21:00 PM 50.3742 -0.8996 210° Southwest  Level Estimated
Wed 12:22:00 PM 50.2966 -0.9692 210° Southwest  Level Estimated
Wed 12:23:00 PM 50.2189 -1.0386 210° Southwest  Level Estimated
Wed 12:24:00 PM 50.1412 -1.1078 210° Southwest  Level Estimated
Wed 12:25:00 PM 50.0635 -1.1768 210° Southwest  Level Estimated
Wed 12:26:00 PM 49.9857 -1.2456 210° Southwest  Level Estimated
Wed 12:27:00 PM 49.9079 -1.3141 210° Southwest  Level Estimated
Wed 12:28:00 PM 49.8300 -1.3824 210° Southwest  Level Estimated
Wed 12:29:00 PM 49.7431 -1.4583 209° Southwest  Level Estimated
Wed 12:30:00 PM 49.6562 -1.5339 209° Southwest  Level Estimated
Wed 12:31:00 PM 49.5692 -1.6093 209° Southwest  Level Estimated
Wed 12:32:00 PM 49.4822 -1.6844 209° Southwest  Level Estimated
Wed 12:33:00 PM 49.3951 -1.7593 209° Southwest  Level Estimated
Wed 12:34:00 PM 49.3080 -1.8338 209° Southwest  Level Estimated
Wed 12:35:00 PM 49.2208 -1.9081 209° Southwest  Level Estimated
Wed 12:36:00 PM 49.1336 -1.9822 209° Southwest  Level Estimated
Wed 12:37:00 PM 49.0464 -2.0560 209° Southwest  Level Estimated
Wed 12:38:00 PM 48.9590 -2.1295 209° Southwest  Level Estimated
Wed 12:39:00 PM 48.8717 -2.2028 209° Southwest  Level Estimated
Wed 12:40:00 PM 48.7843 -2.2758 209° Southwest  Level Estimated
Wed 12:41:00 PM 48.6968 -2.3486 209° Southwest  Level Estimated
Wed 12:42:00 PM 48.6093 -2.4211 209° Southwest  Level Estimated
Wed 12:43:00 PM 48.5218 -2.4933 209° Southwest  Level Estimated
Wed 12:44:00 PM 48.4342 -2.5653 209° Southwest  Level Estimated
Wed 12:45:00 PM 48.3466 -2.6371 209° Southwest  Level Estimated
Wed 12:46:00 PM 48.2589 -2.7086 209° Southwest  Level Estimated
Wed 12:47:00 PM 48.1712 -2.7799 208° Southwest  Level Estimated
Wed 12:48:00 PM 48.0835 -2.8509 208° Southwest  Level Estimated
Wed 12:49:00 PM 47.9957 -2.9217 208° Southwest  Level Estimated
Wed 12:50:00 PM 47.9078 -2.9922 208° Southwest  Level Estimated
Wed 12:51:00 PM 47.8199 -3.0625 208° Southwest  Level Estimated
Wed 12:52:00 PM 47.7320 -3.1326 208° Southwest  Level Estimated
Wed 12:53:00 PM 47.6440 -3.2024 208° Southwest  Level Estimated
Wed 12:54:00 PM 47.5560 -3.2720 208° Southwest  Level Estimated
Wed 12:55:00 PM 47.4679 -3.3414 208° Southwest  Level Estimated
Wed 12:56:00 PM 47.3798 -3.4105 208° Southwest  Level Estimated
Wed 12:57:00 PM 47.2917 -3.4794 208° Southwest  Level Estimated
Wed 12:58:00 PM 47.2035 -3.5481 208° Southwest  Level Estimated
Wed 12:59:00 PM 47.1153 -3.6165 208° Southwest  Level Estimated
Wed 01:00:00 PM 47.0270 -3.6848 208° Southwest  Level Estimated
Wed 01:01:00 PM 46.9387 -3.7527 208° Southwest  Level Estimated
Wed 01:02:00 PM 46.8503 -3.8205 208° Southwest  Level Estimated
Wed 01:03:00 PM 46.7619 -3.8881 208° Southwest  Level Estimated
Wed 01:04:00 PM 46.6735 -3.9554 208° Southwest  Level Estimated
Wed 01:05:00 PM 46.5850 -4.0225 208° Southwest  Level Estimated
Wed 01:06:00 PM 46.4965 -4.0894 207° Southwest  Level Estimated
Wed 01:07:00 PM 46.4080 -4.1560 207° Southwest  Level Estimated
Wed 01:08:00 PM 46.3194 -4.2225 207° Southwest  Level Estimated
Wed 01:09:00 PM 46.2308 -4.2887 207° Southwest  Level Estimated
Wed 01:10:00 PM 46.1421 -4.3547 207° Southwest  Level Estimated
Wed 01:11:00 PM 46.0534 -4.4205 207° Southwest  Level Estimated
Wed 01:12:00 PM 45.9647 -4.4861 207° Southwest  Level Estimated
Wed 01:13:00 PM 45.8759 -4.5515 207° Southwest  Level Estimated
Wed 01:14:00 PM 45.7871 -4.6167 207° Southwest  Level Estimated
Wed 01:15:00 PM 45.6983 -4.6817 207° Southwest  Level Estimated
Wed 01:16:00 PM 45.6094 -4.7464 207° Southwest  Level Estimated
Wed 01:17:00 PM 45.5205 -4.8110 207° Southwest  Level Estimated
Wed 01:18:00 PM 45.4315 -4.8754 207° Southwest  Level Estimated
Wed 01:19:00 PM 45.3425 -4.9395 207° Southwest  Level Estimated
Wed 01:20:00 PM 45.2535 -5.0035 207° Southwest  Level Estimated
Wed 01:21:00 PM 45.1644 -5.0672 207° Southwest  Level Estimated
Wed 01:22:00 PM 45.0753 -5.1308 207° Southwest  Level Estimated
Wed 01:23:00 PM 44.9862 -5.1941 207° Southwest  Level Estimated
Wed 01:24:00 PM 44.8970 -5.2573 207° Southwest  Level Estimated
Wed 01:25:00 PM 44.8078 -5.3202 207° Southwest  Level Estimated
Wed 01:26:00 PM 44.7186 -5.3830 207° Southwest  Level Estimated
Wed 01:27:00 PM 44.6293 -5.4456 207° Southwest  Level Estimated
Wed 01:28:00 PM 44.5400 -5.5080 206° Southwest  Level Estimated
Wed 01:29:00 PM 44.4507 -5.5702 206° Southwest  Level Estimated
Wed 01:30:00 PM 44.3613 -5.6322 206° Southwest  Level Estimated
Wed 01:31:00 PM 44.2719 -5.6940 206° Southwest  Level Estimated
Wed 01:32:00 PM 44.1825 -5.7556 206° Southwest  Level Estimated
Wed 01:33:00 PM 44.0930 -5.8170 206° Southwest  Level Estimated
Wed 01:34:00 PM 44.0035 -5.8783 206° Southwest  Level Estimated
Wed 01:35:00 PM 43.9139 -5.9394 206° Southwest  Level Estimated
Wed 01:36:00 PM 43.8244 -6.0002 206° Southwest  Level Estimated
Wed 01:37:00 PM 43.7348 -6.0609 206° Southwest  Level Estimated
Wed 01:38:00 PM 43.6451 -6.1215 206° Southwest  Level Estimated
Wed 01:39:00 PM 43.5555 -6.1818 206° Southwest  Level Estimated
Wed 01:40:00 PM 43.4658 -6.2420 206° Southwest  Level Estimated
Wed 01:41:00 PM 43.3760 -6.3019 206° Southwest  Level Estimated
Wed 01:42:00 PM 43.2863 -6.3618 206° Southwest  Level Estimated
Wed 01:43:00 PM 43.1965 -6.4214 206° Southwest  Level Estimated
Wed 01:44:00 PM 43.1067 -6.4808 206° Southwest  Level Estimated
Wed 01:45:00 PM 43.0168 -6.5401 206° Southwest  Level Estimated
Wed 01:46:00 PM 42.9269 -6.5992 206° Southwest  Level Estimated
Wed 01:47:00 PM 42.8370 -6.6582 206° Southwest  Level Estimated
Wed 01:48:00 PM 42.7471 -6.7169 206° Southwest  Level Estimated
Wed 01:49:00 PM 42.6571 -6.7755 206° Southwest  Level Estimated
Wed 01:50:00 PM 42.5671 -6.8339 206° Southwest  Level Estimated
Wed 01:51:00 PM 42.4771 -6.8922 206° Southwest  Level Estimated
Wed 01:52:00 PM 42.3870 -6.9503 205° Southwest  Level Estimated
Wed 01:53:00 PM 42.2969 -7.0082 205° Southwest  Level Estimated
Wed 01:54:00 PM 42.2068 -7.0660 205° Southwest  Level Estimated
Wed 01:55:00 PM 42.1167 -7.1235 205° Southwest  Level Estimated
Wed 01:56:00 PM 42.0265 -7.1810 205° Southwest  Level Estimated
Wed 01:57:00 PM 41.9363 -7.2382 205° Southwest  Level Estimated
Wed 01:58:00 PM 41.8460 -7.2953 205° Southwest  Level Estimated
Wed 01:59:00 PM 41.7558 -7.3523 205° Southwest  Level Estimated
Wed 02:00:00 PM 41.6655 -7.4091 205° Southwest  Level Estimated
Wed 02:01:00 PM 41.5752 -7.4657 205° Southwest  Level Estimated
Wed 02:02:00 PM 41.4848 -7.5222 205° Southwest  Level Estimated
Wed 02:03:00 PM 41.3944 -7.5785 205° Southwest  Level Estimated
Wed 02:04:00 PM 41.3040 -7.6346 205° Southwest  Level Estimated
Wed 02:05:00 PM 41.2136 -7.6906 205° Southwest  Level Estimated
Wed 02:06:00 PM 41.1231 -7.7464 205° Southwest  Level Estimated
Wed 02:07:00 PM 41.0327 -7.8021 205° Southwest  Level Estimated
Wed 02:08:00 PM 40.9422 -7.8577 205° Southwest  Level Estimated
Wed 02:09:00 PM 40.8516 -7.9131 205° Southwest  Level Estimated
Wed 02:10:00 PM 40.7611 -7.9683 205° Southwest  Level Estimated
Wed 02:11:00 PM 40.6705 -8.0234 205° Southwest  Level Estimated
Wed 02:12:00 PM 40.5798 -8.0783 205° Southwest  Level Estimated
Wed 02:13:00 PM 40.4892 -8.1331 205° Southwest  Level Estimated
Wed 02:14:00 PM 40.3985 -8.1877 205° Southwest  Level Estimated
Wed 02:15:00 PM 40.3078 -8.2422 205° Southwest  Level Estimated
Wed 02:16:00 PM 40.2171 -8.2965 205° Southwest  Level Estimated
Wed 02:17:00 PM 40.1264 -8.3507 205° Southwest  Level Estimated
Wed 02:18:00 PM 40.0356 -8.4048 205° Southwest  Level Estimated
Wed 02:19:00 PM 39.9448 -8.4587 204° Southwest  Level Estimated
Wed 02:20:00 PM 39.8540 -8.5125 204° Southwest  Level Estimated
Wed 02:21:00 PM 39.7632 -8.5661 204° Southwest  Level Estimated
Wed 02:22:00 PM 39.6723 -8.6196 204° Southwest  Level Estimated
Wed 02:23:00 PM 39.5814 -8.6729 204° Southwest  Level Estimated
Wed 02:24:00 PM 39.4905 -8.7261 204° Southwest  Level Estimated
Wed 02:25:00 PM 39.4062 -8.7753 204° Southwest  Level Estimated
Wed 02:26:00 PM 39.3219 -8.8244 204° Southwest  Level Estimated
Wed 02:27:00 PM 39.2376 -8.8733 204° Southwest  Level Estimated
Wed 02:28:00 PM 39.1533 -8.9221 204° Southwest  Level Estimated
Wed 02:29:00 PM 39.0689 -8.9708 204° Southwest  Level Estimated
Wed 02:30:00 PM 38.9846 -9.0194 204° Southwest  Level Estimated
Wed 02:31:00 PM 38.9002 -9.0679 204° Southwest  Level Estimated
Wed 02:32:00 PM 38.8158 -9.1162 204° Southwest  Level Estimated
Wed 02:33:00 PM 38.7813 -9.1359 204° Southwest  Level Estimated
Wed 02:34:00 PM 38.7813 -9.1359 38° Northeast  Level Estimated
Wed 02:35:00 PM 38.7813 -9.1359 38° Northeast  Level Estimated
Wed 02:36:00 PM 38.7813 -9.1359 38° Northeast  Level Estimated
Wed 02:37:00 PM 38.7813 -9.1359 38° Northeast  Level Estimated
Wed 02:38:00 PM 38.7813 -9.1359 38° Northeast  Level Estimated
Wed 02:39:00 PM 38.7813 -9.1359 38° Northeast  Level Estimated
Wed 02:40:00 PM 38.7813 -9.1359 38° Northeast  Level Estimated
Wed 02:41:00 PM 38.7813 -9.1359 38° Northeast  Level Estimated
Wed 02:42:00 PM 38.7813 -9.1359 38° Northeast  Level Estimated
Wed 02:43:00 PM 38.7813 -9.1359 38° Northeast  Level Estimated
Wed 02:44:00 PM 38.7813 -9.1359 38° Northeast  Level Estimated
Wed 02:45:00 PM 38.7813 -9.1359 38° Northeast  Level Estimated
Wed 02:46:00 PM 38.7813 -9.1359 38° Northeast  Level Estimated
Wed 02:47:00 PM 38.7813 -9.1359 38° Northeast  Level Estimated
Wed 02:48:00 PM 38.7813 -9.1359 38° Northeast  Level Estimated
Wed 02:49:00 PM 38.7813 -9.1359 38° Northeast  Level Estimated
Wed 02:50:00 PM 38.7813 -9.1359 38° Northeast  Level Estimated
Wed 02:51:00 PM 38.7813 -9.1359 38° Northeast  Level Estimated
Wed 02:52:00 PM 38.7813 -9.1359 38° Northeast  Level Estimated
Wed 02:53:00 PM 38.7813 -9.1359 38° Northeast  Level Estimated
Wed 02:54:00 PM 38.7813 -9.1359 38° Northeast  Level Estimated
Wed 02:55:00 PM 38.7813 -9.1359 38° Northeast  Level Estimated
Wed 02:56:00 PM 38.7813 -9.1359 38° Northeast  Level Estimated
Wed 02:57:00 PM 38.7813 -9.1359 38° Northeast  Level Estimated

Login

Don't have an account? Register now (free) for customized features, flight alerts, and more!